sensor_id;sensor_type;location;lat;lon;timestamp;pressure;altitude;pressure_sealevel;temperature;humidity
71195;BME280;58908;51.426;7.714;2023-08-30T00:00:48;99108.47;;;14.14;100.00
71195;BME280;58908;51.426;7.714;2023-08-30T00:03:14;99106.66;;;14.14;100.00
71195;BME280;58908;51.426;7.714;2023-08-30T00:05:41;99107.50;;;14.15;100.00
71195;BME280;58908;51.426;7.714;2023-08-30T00:08:07;99096.19;;;14.13;100.00
71195;BME280;58908;51.426;7.714;2023-08-30T00:10:35;99098.97;;;14.11;100.00
71195;BME280;58908;51.426;7.714;2023-08-30T00:13:03;99098.22;;;14.09;100.00
71195;BME280;58908;51.426;7.714;2023-08-30T00:15:29;99095.56;;;14.09;100.00
71195;BME280;58908;51.426;7.714;2023-08-30T00:17:55;99093.66;;;14.11;100.00
71195;BME280;58908;51.426;7.714;2023-08-30T00:20:22;99092.81;;;14.11;100.00
71195;BME280;58908;51.426;7.714;2023-08-30T00:22:48;99093.78;;;14.10;100.00
71195;BME280;58908;51.426;7.714;2023-08-30T00:25:15;99098.38;;;14.08;100.00
71195;BME280;58908;51.426;7.714;2023-08-30T00:27:42;99102.22;;;14.04;100.00
71195;BME280;58908;51.426;7.714;2023-08-30T00:30:09;99099.94;;;13.99;100.00
71195;BME280;58908;51.426;7.714;2023-08-30T00:32:36;99098.25;;;13.98;100.00
71195;BME280;58908;51.426;7.714;2023-08-30T00:35:02;99097.19;;;14.01;100.00
71195;BME280;58908;51.426;7.714;2023-08-30T00:37:28;99102.38;;;14.02;100.00
71195;BME280;58908;51.426;7.714;2023-08-30T00:39:54;99092.84;;;14.00;100.00
71195;BME280;58908;51.426;7.714;2023-08-30T00:42:21;99090.44;;;13.97;100.00
71195;BME280;58908;51.426;7.714;2023-08-30T00:44:48;99096.84;;;13.94;100.00
71195;BME280;58908;51.426;7.714;2023-08-30T00:47:15;99096.84;;;13.94;100.00
71195;BME280;58908;51.426;7.714;2023-08-30T00:49:41;99093.94;;;13.86;100.00
71195;BME280;58908;51.426;7.714;2023-08-30T00:52:08;99095.44;;;13.79;100.00
71195;BME280;58908;51.426;7.714;2023-08-30T00:54:35;99090.72;;;13.72;100.00
71195;BME280;58908;51.426;7.714;2023-08-30T00:57:02;99083.88;;;13.69;100.00
71195;BME280;58908;51.426;7.714;2023-08-30T00:59:28;99086.03;;;13.64;100.00
71195;BME280;58908;51.426;7.714;2023-08-30T01:01:58;99083.66;;;13.61;100.00
71195;BME280;58908;51.426;7.714;2023-08-30T01:04:26;99080.28;;;13.59;100.00
71195;BME280;58908;51.426;7.714;2023-08-30T01:06:52;99075.59;;;13.52;100.00
71195;BME280;58908;51.426;7.714;2023-08-30T01:09:19;99065.38;;;13.47;100.00
71195;BME280;58908;51.426;7.714;2023-08-30T01:11:46;99079.94;;;13.42;100.00
71195;BME280;58908;51.426;7.714;2023-08-30T01:14:15;99066.09;;;13.38;100.00
71195;BME280;58908;51.426;7.714;2023-08-30T01:16:44;99055.38;;;13.29;100.00
71195;BME280;58908;51.426;7.714;2023-08-30T01:19:18;99062.72;;;13.25;100.00
71195;BME280;58908;51.426;7.714;2023-08-30T01:21:50;99064.88;;;13.20;100.00
71195;BME280;58908;51.426;7.714;2023-08-30T01:24:21;99067.16;;;13.14;100.00
71195;BME280;58908;51.426;7.714;2023-08-30T01:29:18;99061.25;;;12.99;100.00
71195;BME280;58908;51.426;7.714;2023-08-30T01:31:45;99059.94;;;12.94;100.00
71195;BME280;58908;51.426;7.714;2023-08-30T01:34:11;99062.78;;;12.91;100.00
71195;BME280;58908;51.426;7.714;2023-08-30T01:36:39;99063.28;;;12.85;100.00
71195;BME280;58908;51.426;7.714;2023-08-30T01:39:07;99057.25;;;12.83;100.00
71195;BME280;58908;51.426;7.714;2023-08-30T01:41:34;99063.88;;;12.77;100.00
71195;BME280;58908;51.426;7.714;2023-08-30T01:44:01;99060.72;;;12.72;100.00
71195;BME280;58908;51.426;7.714;2023-08-30T01:46:30;99061.78;;;12.70;100.00
71195;BME280;58908;51.426;7.714;2023-08-30T01:48:57;99066.13;;;12.71;100.00
71195;BME280;58908;51.426;7.714;2023-08-30T01:51:23;99073.59;;;12.66;100.00
71195;BME280;58908;51.426;7.714;2023-08-30T01:53:51;99062.91;;;12.67;100.00
71195;BME280;58908;51.426;7.714;2023-08-30T01:56:18;99053.75;;;12.71;100.00
71195;BME280;58908;51.426;7.714;2023-08-30T01:58:44;99057.94;;;12.63;100.00
71195;BME280;58908;51.426;7.714;2023-08-30T02:01:10;99057.69;;;12.55;100.00
71195;BME280;58908;51.426;7.714;2023-08-30T02:03:38;99052.63;;;12.52;100.00
71195;BME280;58908;51.426;7.714;2023-08-30T02:06:06;99053.09;;;12.46;100.00
71195;BME280;58908;51.426;7.714;2023-08-30T02:08:35;99057.66;;;12.44;100.00
71195;BME280;58908;51.426;7.714;2023-08-30T02:11:03;99059.69;;;12.40;100.00
71195;BME280;58908;51.426;7.714;2023-08-30T02:13:30;99061.69;;;12.37;100.00
71195;BME280;58908;51.426;7.714;2023-08-30T02:15:58;99064.34;;;12.37;100.00
71195;BME280;58908;51.426;7.714;2023-08-30T02:18:26;99067.00;;;12.37;100.00
71195;BME280;58908;51.426;7.714;2023-08-30T02:20:54;99059.66;;;12.29;100.00
71195;BME280;58908;51.426;7.714;2023-08-30T02:23:22;99058.69;;;12.30;100.00
71195;BME280;58908;51.426;7.714;2023-08-30T02:25:48;99049.06;;;12.29;100.00
71195;BME280;58908;51.426;7.714;2023-08-30T02:28:15;99043.63;;;12.20;100.00
71195;BME280;58908;51.426;7.714;2023-08-30T02:30:41;99044.69;;;12.17;100.00
71195;BME280;58908;51.426;7.714;2023-08-30T02:33:07;99044.94;;;12.14;100.00
71195;BME280;58908;51.426;7.714;2023-08-30T02:35:33;99043.34;;;12.12;100.00
71195;BME280;58908;51.426;7.714;2023-08-30T02:38:01;99044.41;;;12.09;100.00
71195;BME280;58908;51.426;7.714;2023-08-30T02:40:29;99042.97;;;12.05;100.00
71195;BME280;58908;51.426;7.714;2023-08-30T02:42:56;99042.34;;;12.02;100.00
71195;BME280;58908;51.426;7.714;2023-08-30T02:45:22;99044.13;;;11.91;100.00
71195;BME280;58908;51.426;7.714;2023-08-30T02:47:48;99054.50;;;11.81;100.00
71195;BME280;58908;51.426;7.714;2023-08-30T02:50:14;99051.47;;;11.75;100.00
71195;BME280;58908;51.426;7.714;2023-08-30T02:52:41;99049.69;;;11.75;100.00
71195;BME280;58908;51.426;7.714;2023-08-30T02:55:08;99044.88;;;11.80;100.00
71195;BME280;58908;51.426;7.714;2023-08-30T02:57:35;99033.88;;;11.86;100.00
71195;BME280;58908;51.426;7.714;2023-08-30T03:00:01;99032.44;;;11.93;100.00
71195;BME280;58908;51.426;7.714;2023-08-30T03:02:30;99030.56;;;11.95;100.00
71195;BME280;58908;51.426;7.714;2023-08-30T03:04:57;99030.44;;;11.96;100.00
71195;BME280;58908;51.426;7.714;2023-08-30T03:07:24;99026.09;;;11.95;100.00
71195;BME280;58908;51.426;7.714;2023-08-30T03:09:51;99025.38;;;11.93;100.00
71195;BME280;58908;51.426;7.714;2023-08-30T03:12:19;99030.19;;;11.89;100.00
71195;BME280;58908;51.426;7.714;2023-08-30T03:14:45;99024.72;;;11.79;100.00
71195;BME280;58908;51.426;7.714;2023-08-30T03:17:12;99025.66;;;11.78;100.00
71195;BME280;58908;51.426;7.714;2023-08-30T03:19:38;99022.28;;;11.76;100.00
71195;BME280;58908;51.426;7.714;2023-08-30T03:22:04;99027.88;;;11.84;100.00
71195;BME280;58908;51.426;7.714;2023-08-30T03:24:30;99022.59;;;11.84;100.00
71195;BME280;58908;51.426;7.714;2023-08-30T03:26:57;99022.34;;;11.87;100.00
71195;BME280;58908;51.426;7.714;2023-08-30T03:29:26;99024.47;;;11.82;100.00
71195;BME280;58908;51.426;7.714;2023-08-30T03:31:52;99016.16;;;11.76;100.00
71195;BME280;58908;51.426;7.714;2023-08-30T03:34:18;99015.81;;;11.80;100.00
71195;BME280;58908;51.426;7.714;2023-08-30T03:36:44;99010.53;;;11.80;100.00
71195;BME280;58908;51.426;7.714;2023-08-30T03:39:15;99017.31;;;11.84;100.00
71195;BME280;58908;51.426;7.714;2023-08-30T03:41:42;99006.59;;;11.86;100.00
71195;BME280;58908;51.426;7.714;2023-08-30T03:44:08;99018.03;;;11.86;100.00
71195;BME280;58908;51.426;7.714;2023-08-30T03:46:35;99011.63;;;11.78;100.00
71195;BME280;58908;51.426;7.714;2023-08-30T03:49:02;99015.94;;;11.79;100.00
71195;BME280;58908;51.426;7.714;2023-08-30T03:51:28;99006.53;;;11.75;100.00
71195;BME280;58908;51.426;7.714;2023-08-30T03:53:55;99006.63;;;11.62;100.00
71195;BME280;58908;51.426;7.714;2023-08-30T03:56:22;99013.78;;;11.60;100.00
71195;BME280;58908;51.426;7.714;2023-08-30T03:58:48;99003.88;;;11.51;100.00
71195;BME280;58908;51.426;7.714;2023-08-30T04:01:14;99012.88;;;11.49;100.00
71195;BME280;58908;51.426;7.714;2023-08-30T04:03:42;99012.25;;;11.45;100.00
71195;BME280;58908;51.426;7.714;2023-08-30T04:06:08;99010.13;;;11.50;100.00
71195;BME280;58908;51.426;7.714;2023-08-30T04:08:35;99016.34;;;11.49;100.00
71195;BME280;58908;51.426;7.714;2023-08-30T04:11:01;99022.69;;;11.47;100.00
71195;BME280;58908;51.426;7.714;2023-08-30T04:13:27;99020.94;;;11.35;100.00
71195;BME280;58908;51.426;7.714;2023-08-30T04:15:54;99025.06;;;11.26;100.00
71195;BME280;58908;51.426;7.714;2023-08-30T04:18:23;99020.47;;;11.17;100.00
71195;BME280;58908;51.426;7.714;2023-08-30T04:20:51;99015.50;;;11.13;100.00
71195;BME280;58908;51.426;7.714;2023-08-30T04:23:17;99007.91;;;11.08;100.00
71195;BME280;58908;51.426;7.714;2023-08-30T04:25:44;99003.38;;;11.10;100.00
71195;BME280;58908;51.426;7.714;2023-08-30T04:28:10;99005.28;;;11.08;100.00
71195;BME280;58908;51.426;7.714;2023-08-30T04:30:36;99007.03;;;11.20;100.00
71195;BME280;58908;51.426;7.714;2023-08-30T04:33:03;99005.28;;;11.08;100.00
71195;BME280;58908;51.426;7.714;2023-08-30T04:35:30;99005.22;;;11.21;100.00
71195;BME280;58908;51.426;7.714;2023-08-30T04:40:25;99000.03;;;11.32;100.00
71195;BME280;58908;51.426;7.714;2023-08-30T04:42:51;98996.56;;;11.31;100.00
71195;BME280;58908;51.426;7.714;2023-08-30T04:45:18;98998.75;;;11.37;100.00
71195;BME280;58908;51.426;7.714;2023-08-30T04:47:44;98991.69;;;11.38;100.00
71195;BME280;58908;51.426;7.714;2023-08-30T04:50:10;98997.78;;;11.38;100.00
71195;BME280;58908;51.426;7.714;2023-08-30T04:52:37;98997.91;;;11.37;100.00
71195;BME280;58908;51.426;7.714;2023-08-30T04:55:03;98992.50;;;11.38;100.00
71195;BME280;58908;51.426;7.714;2023-08-30T04:57:31;98990.09;;;11.35;100.00
71195;BME280;58908;51.426;7.714;2023-08-30T04:59:57;98992.34;;;11.29;100.00
71195;BME280;58908;51.426;7.714;2023-08-30T05:02:24;98981.78;;;11.29;100.00
71195;BME280;58908;51.426;7.714;2023-08-30T05:04:51;98976.72;;;11.26;100.00
71195;BME280;58908;51.426;7.714;2023-08-30T05:07:17;98984.81;;;11.35;100.00
71195;BME280;58908;51.426;7.714;2023-08-30T05:09:43;98968.41;;;11.43;100.00
71195;BME280;58908;51.426;7.714;2023-08-30T05:12:10;98978.75;;;11.46;100.00
71195;BME280;58908;51.426;7.714;2023-08-30T05:14:37;98972.53;;;11.47;100.00
71195;BME280;58908;51.426;7.714;2023-08-30T05:17:05;98965.00;;;11.53;100.00
71195;BME280;58908;51.426;7.714;2023-08-30T05:19:32;98961.81;;;11.61;100.00
71195;BME280;58908;51.426;7.714;2023-08-30T05:21:58;98954.00;;;11.59;100.00
71195;BME280;58908;51.426;7.714;2023-08-30T05:24:24;98955.91;;;11.57;100.00
71195;BME280;58908;51.426;7.714;2023-08-30T05:26:53;98953.56;;;11.65;100.00
71195;BME280;58908;51.426;7.714;2023-08-30T05:29:19;98947.66;;;11.62;100.00
71195;BME280;58908;51.426;7.714;2023-08-30T05:31:47;98953.66;;;11.40;100.00
71195;BME280;58908;51.426;7.714;2023-08-30T05:34:13;98945.94;;;11.37;100.00
71195;BME280;58908;51.426;7.714;2023-08-30T05:36:40;98942.56;;;11.35;100.00
71195;BME280;58908;51.426;7.714;2023-08-30T05:39:06;98947.59;;;11.38;100.00
71195;BME280;58908;51.426;7.714;2023-08-30T05:41:32;98954.03;;;11.47;100.00
71195;BME280;58908;51.426;7.714;2023-08-30T05:43:58;98952.22;;;11.47;100.00
71195;BME280;58908;51.426;7.714;2023-08-30T05:46:25;98945.78;;;11.51;100.00
71195;BME280;58908;51.426;7.714;2023-08-30T05:48:52;98947.47;;;11.52;100.00
71195;BME280;58908;51.426;7.714;2023-08-30T05:51:19;98950.84;;;11.54;100.00
71195;BME280;58908;51.426;7.714;2023-08-30T05:53:45;98950.63;;;11.57;100.00
71195;BME280;58908;51.426;7.714;2023-08-30T05:56:12;98941.88;;;11.57;100.00
71195;BME280;58908;51.426;7.714;2023-08-30T05:58:38;98941.34;;;11.75;100.00
71195;BME280;58908;51.426;7.714;2023-08-30T06:01:04;98936.94;;;11.87;100.00
71195;BME280;58908;51.426;7.714;2023-08-30T06:03:31;98939.31;;;11.79;100.00
71195;BME280;58908;51.426;7.714;2023-08-30T06:05:59;98931.06;;;11.83;100.00
71195;BME280;58908;51.426;7.714;2023-08-30T06:08:25;98937.47;;;12.02;100.00
71195;BME280;58908;51.426;7.714;2023-08-30T06:10:51;98931.97;;;12.16;100.00
71195;BME280;58908;51.426;7.714;2023-08-30T06:13:17;98929.97;;;12.31;100.00
71195;BME280;58908;51.426;7.714;2023-08-30T06:15:44;98924.66;;;12.31;100.00
71195;BME280;58908;51.426;7.714;2023-08-30T06:18:10;98925.16;;;12.47;100.00
71195;BME280;58908;51.426;7.714;2023-08-30T06:20:39;98919.16;;;12.67;100.00
71195;BME280;58908;51.426;7.714;2023-08-30T06:23:07;98922.63;;;12.89;100.00
71195;BME280;58908;51.426;7.714;2023-08-30T06:25:33;98914.44;;;13.14;100.00
71195;BME280;58908;51.426;7.714;2023-08-30T06:27:59;98913.75;;;13.44;100.00
71195;BME280;58908;51.426;7.714;2023-08-30T06:30:27;98905.94;;;13.74;100.00
71195;BME280;58908;51.426;7.714;2023-08-30T06:32:54;98902.19;;;13.97;100.00
71195;BME280;58908;51.426;7.714;2023-08-30T06:35:20;98893.06;;;14.31;100.00
71195;BME280;58908;51.426;7.714;2023-08-30T06:37:47;98892.91;;;14.52;100.00
71195;BME280;58908;51.426;7.714;2023-08-30T06:40:14;98885.22;;;14.89;100.00
71195;BME280;58908;51.426;7.714;2023-08-30T06:42:41;98876.59;;;15.15;100.00
71195;BME280;58908;51.426;7.714;2023-08-30T06:45:07;98873.88;;;15.36;100.00
71195;BME280;58908;51.426;7.714;2023-08-30T06:47:34;98865.63;;;15.58;100.00
71195;BME280;58908;51.426;7.714;2023-08-30T06:50:00;98858.22;;;15.61;100.00
71195;BME280;58908;51.426;7.714;2023-08-30T06:52:28;98850.47;;;15.87;100.00
71195;BME280;58908;51.426;7.714;2023-08-30T06:54:55;98841.75;;;16.13;100.00
71195;BME280;58908;51.426;7.714;2023-08-30T06:57:22;98835.63;;;16.49;100.00
71195;BME280;58908;51.426;7.714;2023-08-30T06:59:49;98824.91;;;16.68;100.00
71195;BME280;58908;51.426;7.714;2023-08-30T07:02:15;98826.53;;;16.79;100.00
71195;BME280;58908;51.426;7.714;2023-08-30T07:04:41;98816.66;;;16.89;100.00
71195;BME280;58908;51.426;7.714;2023-08-30T07:07:07;98810.19;;;17.08;100.00
71195;BME280;58908;51.426;7.714;2023-08-30T07:09:34;98789.63;;;17.45;100.00
71195;BME280;58908;51.426;7.714;2023-08-30T07:12:00;98774.84;;;17.76;100.00
71195;BME280;58908;51.426;7.714;2023-08-30T07:14:28;98780.34;;;17.75;100.00
71195;BME280;58908;51.426;7.714;2023-08-30T07:16:54;98755.41;;;17.84;100.00
71195;BME280;58908;51.426;7.714;2023-08-30T07:19:20;98755.94;;;18.21;100.00
71195;BME280;58908;51.426;7.714;2023-08-30T07:21:46;98744.53;;;18.36;100.00
71195;BME280;58908;51.426;7.714;2023-08-30T07:24:13;98736.41;;;18.54;100.00
71195;BME280;58908;51.426;7.714;2023-08-30T07:26:39;98726.16;;;18.91;100.00
71195;BME280;58908;51.426;7.714;2023-08-30T07:29:05;98716.38;;;19.39;100.00
71195;BME280;58908;51.426;7.714;2023-08-30T07:31:33;98730.38;;;19.01;100.00
71195;BME280;58908;51.426;7.714;2023-08-30T07:33:59;98731.53;;;19.94;100.00
71195;BME280;58908;51.426;7.714;2023-08-30T07:36:26;98717.06;;;20.27;100.00
71195;BME280;58908;51.426;7.714;2023-08-30T07:38:53;98706.03;;;20.91;100.00
71195;BME280;58908;51.426;7.714;2023-08-30T07:41:19;98710.31;;;21.68;100.00
71195;BME280;58908;51.426;7.714;2023-08-30T07:43:45;98685.13;;;21.46;98.34
71195;BME280;58908;51.426;7.714;2023-08-30T07:46:12;98678.19;;;21.74;96.61
71195;BME280;58908;51.426;7.714;2023-08-30T07:48:39;98701.28;;;20.71;97.40
71195;BME280;58908;51.426;7.714;2023-08-30T07:51:05;98683.84;;;21.20;96.54
71195;BME280;58908;51.426;7.714;2023-08-30T07:53:32;98697.03;;;21.07;96.91
71195;BME280;58908;51.426;7.714;2023-08-30T07:55:58;98690.88;;;21.43;94.89
71195;BME280;58908;51.426;7.714;2023-08-30T07:58:24;98687.00;;;21.46;93.80
71195;BME280;58908;51.426;7.714;2023-08-30T08:00:50;98705.78;;;21.46;96.49
71195;BME280;58908;51.426;7.714;2023-08-30T08:03:17;98700.59;;;21.44;95.03
71195;BME280;58908;51.426;7.714;2023-08-30T08:05:45;98690.13;;;21.49;92.49
71195;BME280;58908;51.426;7.714;2023-08-30T08:08:11;98701.06;;;21.25;92.63
71195;BME280;58908;51.426;7.714;2023-08-30T08:10:37;98719.53;;;20.67;94.30
71195;BME280;58908;51.426;7.714;2023-08-30T08:13:04;98710.84;;;21.41;93.46
71195;BME280;58908;51.426;7.714;2023-08-30T08:15:30;98697.91;;;21.67;92.15
71195;BME280;58908;51.426;7.714;2023-08-30T08:17:57;98707.28;;;21.03;92.73
71195;BME280;58908;51.426;7.714;2023-08-30T08:20:23;98694.09;;;21.76;91.99
71195;BME280;58908;51.426;7.714;2023-08-30T08:22:51;98701.94;;;21.26;92.15
71195;BME280;58908;51.426;7.714;2023-08-30T08:25:17;98683.66;;;20.76;90.04
71195;BME280;58908;51.426;7.714;2023-08-30T08:27:45;98692.28;;;20.94;91.41
71195;BME280;58908;51.426;7.714;2023-08-30T08:30:12;98698.66;;;21.16;92.21
71195;BME280;58908;51.426;7.714;2023-08-30T08:32:38;98669.13;;;22.04;90.11
71195;BME280;58908;51.426;7.714;2023-08-30T08:35:05;98681.56;;;22.05;89.31
71195;BME280;58908;51.426;7.714;2023-08-30T08:37:32;98675.56;;;21.07;89.60
71195;BME280;58908;51.426;7.714;2023-08-30T08:39:59;98677.47;;;22.23;89.77
71195;BME280;58908;51.426;7.714;2023-08-30T08:42:32;98645.28;;;23.01;84.60
71195;BME280;58908;51.426;7.714;2023-08-30T08:44:58;98651.06;;;22.98;84.92
71195;BME280;58908;51.426;7.714;2023-08-30T08:47:25;98650.28;;;22.62;84.71
71195;BME280;58908;51.426;7.714;2023-08-30T08:49:51;98641.84;;;22.36;82.03
71195;BME280;58908;51.426;7.714;2023-08-30T08:52:18;98651.34;;;22.03;83.54
71195;BME280;58908;51.426;7.714;2023-08-30T08:54:44;98638.03;;;22.59;82.64
71195;BME280;58908;51.426;7.714;2023-08-30T08:57:12;98648.09;;;21.64;83.32
71195;BME280;58908;51.426;7.714;2023-08-30T08:59:39;98662.56;;;21.55;84.19
71195;BME280;58908;51.426;7.714;2023-08-30T09:02:05;98652.06;;;21.68;83.76
71195;BME280;58908;51.426;7.714;2023-08-30T09:04:32;98636.91;;;21.75;80.47
71195;BME280;58908;51.426;7.714;2023-08-30T09:06:58;98644.28;;;22.31;81.35
71195;BME280;58908;51.426;7.714;2023-08-30T09:09:25;98620.91;;;22.46;79.98
71195;BME280;58908;51.426;7.714;2023-08-30T09:11:51;98637.69;;;21.47;80.96
71195;BME280;58908;51.426;7.714;2023-08-30T09:14:19;98643.84;;;21.84;82.17
71195;BME280;58908;51.426;7.714;2023-08-30T09:16:53;98635.72;;;21.78;81.72
71195;BME280;58908;51.426;7.714;2023-08-30T09:19:20;98671.75;;;21.01;83.80
71195;BME280;58908;51.426;7.714;2023-08-30T09:21:50;98632.38;;;21.39;80.53
71195;BME280;58908;51.426;7.714;2023-08-30T09:24:16;98618.25;;;21.08;78.05
71195;BME280;58908;51.426;7.714;2023-08-30T09:26:46;98623.22;;;20.96;78.54
71195;BME280;58908;51.426;7.714;2023-08-30T09:29:12;98613.88;;;21.44;76.34
71195;BME280;58908;51.426;7.714;2023-08-30T09:31:40;98625.91;;;20.96;78.71
71195;BME280;58908;51.426;7.714;2023-08-30T09:34:07;98626.16;;;21.75;77.79
71195;BME280;58908;51.426;7.714;2023-08-30T09:36:33;98610.34;;;21.29;77.65
71195;BME280;58908;51.426;7.714;2023-08-30T09:39:03;98628.50;;;21.04;80.53
71195;BME280;58908;51.426;7.714;2023-08-30T09:41:29;98676.50;;;20.38;84.62
71195;BME280;58908;51.426;7.714;2023-08-30T09:43:56;98645.00;;;20.40;82.50
71195;BME280;58908;51.426;7.714;2023-08-30T09:46:23;98637.19;;;20.61;81.36
71195;BME280;58908;51.426;7.714;2023-08-30T09:48:50;98645.63;;;20.50;82.98
71195;BME280;58908;51.426;7.714;2023-08-30T09:51:17;98679.50;;;19.89;87.68
71195;BME280;58908;51.426;7.714;2023-08-30T09:53:46;98675.75;;;19.36;88.74
71195;BME280;58908;51.426;7.714;2023-08-30T09:56:15;98680.09;;;19.52;89.19
71195;BME280;58908;51.426;7.714;2023-08-30T09:58:41;98695.28;;;19.60;92.66
71195;BME280;58908;51.426;7.714;2023-08-30T10:01:08;98671.31;;;19.82;88.53
71195;BME280;58908;51.426;7.714;2023-08-30T10:03:35;98671.66;;;19.79;88.60
71195;BME280;58908;51.426;7.714;2023-08-30T10:06:02;98675.59;;;19.37;89.54
71195;BME280;58908;51.426;7.714;2023-08-30T10:08:30;98688.56;;;19.64;90.59
71195;BME280;58908;51.426;7.714;2023-08-30T10:10:57;98643.41;;;21.07;86.15
71195;BME280;58908;51.426;7.714;2023-08-30T10:13:24;98630.91;;;20.99;85.54
71195;BME280;58908;51.426;7.714;2023-08-30T10:15:51;98627.34;;;21.21;86.06
71195;BME280;58908;51.426;7.714;2023-08-30T10:18:19;98618.91;;;21.61;85.33
71195;BME280;58908;51.426;7.714;2023-08-30T10:20:46;98624.03;;;20.74;85.64
71195;BME280;58908;51.426;7.714;2023-08-30T10:23:14;98626.03;;;20.50;85.81
71195;BME280;58908;51.426;7.714;2023-08-30T10:25:43;98637.03;;;20.55;87.65
71195;BME280;58908;51.426;7.714;2023-08-30T10:28:10;98622.94;;;19.92;86.15
71195;BME280;58908;51.426;7.714;2023-08-30T10:30:37;98631.88;;;19.68;86.85
71195;BME280;58908;51.426;7.714;2023-08-30T10:33:11;98620.41;;;19.98;85.44
71195;BME280;58908;51.426;7.714;2023-08-30T10:35:46;98611.34;;;20.38;85.85
71195;BME280;58908;51.426;7.714;2023-08-30T10:38:12;98621.56;;;20.12;87.53
71195;BME280;58908;51.426;7.714;2023-08-30T10:40:45;98600.28;;;20.02;84.75
71195;BME280;58908;51.426;7.714;2023-08-30T10:43:13;98597.59;;;20.18;84.58
71195;BME280;58908;51.426;7.714;2023-08-30T10:45:39;98612.38;;;19.98;86.02
71195;BME280;58908;51.426;7.714;2023-08-30T10:48:06;98618.25;;;19.86;87.91
71195;BME280;58908;51.426;7.714;2023-08-30T10:50:33;98618.31;;;19.78;86.48
71195;BME280;58908;51.426;7.714;2023-08-30T10:53:00;98628.75;;;19.49;88.43
71195;BME280;58908;51.426;7.714;2023-08-30T10:55:26;98647.66;;;19.08;91.18
71195;BME280;58908;51.426;7.714;2023-08-30T10:58:00;98628.28;;;19.06;90.31
71195;BME280;58908;51.426;7.714;2023-08-30T11:00:27;98663.69;;;18.76;94.38
71195;BME280;58908;51.426;7.714;2023-08-30T11:02:54;98659.78;;;18.54;95.01
71195;BME280;58908;51.426;7.714;2023-08-30T11:05:21;98660.59;;;18.47;95.47
71195;BME280;58908;51.426;7.714;2023-08-30T11:07:47;98679.66;;;18.18;98.19
71195;BME280;58908;51.426;7.714;2023-08-30T11:10:15;98683.53;;;18.24;99.49
71195;BME280;58908;51.426;7.714;2023-08-30T11:12:42;98687.84;;;18.17;100.00
71195;BME280;58908;51.426;7.714;2023-08-30T11:15:12;98684.72;;;17.88;100.00
71195;BME280;58908;51.426;7.714;2023-08-30T11:17:39;98675.75;;;17.97;100.00
71195;BME280;58908;51.426;7.714;2023-08-30T11:20:06;98689.63;;;18.00;100.00
71195;BME280;58908;51.426;7.714;2023-08-30T11:22:34;98689.28;;;18.03;100.00
71195;BME280;58908;51.426;7.714;2023-08-30T11:25:00;98712.00;;;17.82;100.00
71195;BME280;58908;51.426;7.714;2023-08-30T11:27:26;98735.59;;;17.69;100.00
71195;BME280;58908;51.426;7.714;2023-08-30T11:29:53;98748.31;;;17.49;100.00
71195;BME280;58908;51.426;7.714;2023-08-30T11:32:21;98765.91;;;17.42;100.00
71195;BME280;58908;51.426;7.714;2023-08-30T11:34:54;98768.50;;;17.34;100.00
71195;BME280;58908;51.426;7.714;2023-08-30T11:37:21;98760.00;;;17.21;100.00
71195;BME280;58908;51.426;7.714;2023-08-30T11:39:51;98760.09;;;17.29;100.00
71195;BME280;58908;51.426;7.714;2023-08-30T11:42:17;98750.28;;;17.30;100.00
71195;BME280;58908;51.426;7.714;2023-08-30T11:44:44;98755.41;;;17.41;100.00
71195;BME280;58908;51.426;7.714;2023-08-30T11:47:10;98753.56;;;17.41;100.00
71195;BME280;58908;51.426;7.714;2023-08-30T11:49:38;98757.44;;;17.47;100.00
71195;BME280;58908;51.426;7.714;2023-08-30T11:52:05;98756.44;;;17.30;100.00
71195;BME280;58908;51.426;7.714;2023-08-30T11:54:32;98752.97;;;17.12;100.00
71195;BME280;58908;51.426;7.714;2023-08-30T11:56:58;98757.22;;;17.23;100.00
71195;BME280;58908;51.426;7.714;2023-08-30T11:59:25;98747.00;;;17.18;100.00
71195;BME280;58908;51.426;7.714;2023-08-30T12:01:52;98749.97;;;17.15;100.00
71195;BME280;58908;51.426;7.714;2023-08-30T12:04:18;98745.78;;;17.13;100.00
71195;BME280;58908;51.426;7.714;2023-08-30T12:06:51;98749.75;;;17.26;100.00
71195;BME280;58908;51.426;7.714;2023-08-30T12:09:18;98747.03;;;17.36;100.00
71195;BME280;58908;51.426;7.714;2023-08-30T12:11:46;98738.44;;;17.32;100.00
71195;BME280;58908;51.426;7.714;2023-08-30T12:14:13;98734.44;;;16.93;100.00
71195;BME280;58908;51.426;7.714;2023-08-30T12:16:39;98741.22;;;16.71;100.00
71195;BME280;58908;51.426;7.714;2023-08-30T12:19:09;98742.09;;;16.62;100.00
71195;BME280;58908;51.426;7.714;2023-08-30T12:21:39;98750.28;;;16.51;100.00
71195;BME280;58908;51.426;7.714;2023-08-30T12:24:07;98760.84;;;16.43;100.00
71195;BME280;58908;51.426;7.714;2023-08-30T12:26:34;98767.84;;;16.34;100.00
71195;BME280;58908;51.426;7.714;2023-08-30T12:29:00;98785.81;;;16.32;100.00
71195;BME280;58908;51.426;7.714;2023-08-30T12:31:26;98785.47;;;16.08;100.00
71195;BME280;58908;51.426;7.714;2023-08-30T12:33:53;98789.31;;;15.96;100.00
71195;BME280;58908;51.426;7.714;2023-08-30T12:36:20;98791.00;;;15.78;100.00
71195;BME280;58908;51.426;7.714;2023-08-30T12:38:46;98787.66;;;15.76;100.00
71195;BME280;58908;51.426;7.714;2023-08-30T12:41:14;98784.41;;;15.92;100.00
71195;BME280;58908;51.426;7.714;2023-08-30T12:43:41;98783.56;;;15.91;100.00
71195;BME280;58908;51.426;7.714;2023-08-30T12:46:07;98790.28;;;15.86;100.00
71195;BME280;58908;51.426;7.714;2023-08-30T12:48:33;98788.09;;;15.72;100.00
71195;BME280;58908;51.426;7.714;2023-08-30T12:50:59;98786.44;;;15.61;100.00
71195;BME280;58908;51.426;7.714;2023-08-30T12:53:26;98793.03;;;15.48;100.00
71195;BME280;58908;51.426;7.714;2023-08-30T12:55:52;98805.78;;;15.35;100.00